sensor_id;sensor_type;location;lat;lon;timestamp;P1;durP1;ratioP1;P2;durP2;ratioP2
20036;SDS011;10179;42.640;23.312;2023-08-20T00:00:51;6.05;;;4.65;;
20036;SDS011;10179;42.640;23.312;2023-08-20T00:03:17;7.70;;;5.15;;
20036;SDS011;10179;42.640;23.312;2023-08-20T00:05:42;10.35;;;5.05;;
20036;SDS011;10179;42.640;23.312;2023-08-20T00:08:08;7.72;;;5.20;;
20036;SDS011;10179;42.640;23.312;2023-08-20T00:10:34;7.63;;;5.13;;
20036;SDS011;10179;42.640;23.312;2023-08-20T00:12:59;8.98;;;5.30;;
20036;SDS011;10179;42.640;23.312;2023-08-20T00:15:25;9.00;;;5.55;;
20036;SDS011;10179;42.640;23.312;2023-08-20T00:17:53;7.43;;;5.28;;
20036;SDS011;10179;42.640;23.312;2023-08-20T00:20:20;7.18;;;5.22;;
20036;SDS011;10179;42.640;23.312;2023-08-20T00:22:47;12.38;;;5.53;;
20036;SDS011;10179;42.640;23.312;2023-08-20T00:25:12;10.07;;;5.32;;
20036;SDS011;10179;42.640;23.312;2023-08-20T00:27:39;9.27;;;5.60;;
20036;SDS011;10179;42.640;23.312;2023-08-20T00:30:05;7.75;;;5.28;;
20036;SDS011;10179;42.640;23.312;2023-08-20T00:32:31;8.85;;;5.43;;
20036;SDS011;10179;42.640;23.312;2023-08-20T00:34:56;9.00;;;5.25;;
20036;SDS011;10179;42.640;23.312;2023-08-20T00:37:22;7.13;;;5.68;;
20036;SDS011;10179;42.640;23.312;2023-08-20T00:39:47;8.88;;;5.25;;
20036;SDS011;10179;42.640;23.312;2023-08-20T00:42:12;7.32;;;5.97;;
20036;SDS011;10179;42.640;23.312;2023-08-20T00:44:39;9.43;;;6.03;;
20036;SDS011;10179;42.640;23.312;2023-08-20T00:47:06;8.13;;;5.68;;
20036;SDS011;10179;42.640;23.312;2023-08-20T00:49:32;8.50;;;5.47;;
20036;SDS011;10179;42.640;23.312;2023-08-20T00:51:59;9.77;;;5.88;;
20036;SDS011;10179;42.640;23.312;2023-08-20T00:54:25;7.93;;;5.30;;
20036;SDS011;10179;42.640;23.312;2023-08-20T00:56:52;9.35;;;6.22;;
20036;SDS011;10179;42.640;23.312;2023-08-20T00:59:18;10.25;;;6.03;;
20036;SDS011;10179;42.640;23.312;2023-08-20T01:01:43;7.45;;;5.50;;
20036;SDS011;10179;42.640;23.312;2023-08-20T01:04:09;9.80;;;5.85;;
20036;SDS011;10179;42.640;23.312;2023-08-20T01:11:51;9.77;;;5.88;;
20036;SDS011;10179;42.640;23.312;2023-08-20T01:14:21;10.80;;;6.32;;
20036;SDS011;10179;42.640;23.312;2023-08-20T01:16:46;11.30;;;5.60;;
20036;SDS011;10179;42.640;23.312;2023-08-20T01:19:16;8.07;;;5.82;;
20036;SDS011;10179;42.640;23.312;2023-08-20T01:30:41;7.63;;;5.57;;
20036;SDS011;10179;42.640;23.312;2023-08-20T01:33:08;10.30;;;6.20;;
20036;SDS011;10179;42.640;23.312;2023-08-20T01:35:37;10.93;;;5.70;;
20036;SDS011;10179;42.640;23.312;2023-08-20T01:38:03;8.15;;;4.95;;
20036;SDS011;10179;42.640;23.312;2023-08-20T01:40:28;10.65;;;5.85;;
20036;SDS011;10179;42.640;23.312;2023-08-20T01:42:54;7.90;;;5.55;;
20036;SDS011;10179;42.640;23.312;2023-08-20T01:45:19;11.65;;;6.07;;
20036;SDS011;10179;42.640;23.312;2023-08-20T01:47:46;9.85;;;5.40;;
20036;SDS011;10179;42.640;23.312;2023-08-20T01:50:12;11.25;;;5.78;;
20036;SDS011;10179;42.640;23.312;2023-08-20T01:52:37;8.30;;;6.15;;
20036;SDS011;10179;42.640;23.312;2023-08-20T01:55:03;9.35;;;6.35;;
20036;SDS011;10179;42.640;23.312;2023-08-20T01:57:29;9.25;;;6.38;;
20036;SDS011;10179;42.640;23.312;2023-08-20T01:59:54;6.72;;;5.55;;
20036;SDS011;10179;42.640;23.312;2023-08-20T02:02:20;6.60;;;5.25;;
20036;SDS011;10179;42.640;23.312;2023-08-20T02:04:45;10.82;;;5.80;;
20036;SDS011;10179;42.640;23.312;2023-08-20T02:07:11;9.40;;;6.32;;
20036;SDS011;10179;42.640;23.312;2023-08-20T02:09:36;11.40;;;6.20;;
20036;SDS011;10179;42.640;23.312;2023-08-20T02:12:02;10.73;;;6.00;;
20036;SDS011;10179;42.640;23.312;2023-08-20T02:14:27;8.88;;;5.78;;
20036;SDS011;10179;42.640;23.312;2023-08-20T02:16:54;14.52;;;5.90;;
20036;SDS011;10179;42.640;23.312;2023-08-20T02:19:19;7.97;;;5.43;;
20036;SDS011;10179;42.640;23.312;2023-08-20T02:21:44;10.63;;;6.15;;
20036;SDS011;10179;42.640;23.312;2023-08-20T02:24:10;7.38;;;5.63;;
20036;SDS011;10179;42.640;23.312;2023-08-20T02:26:36;10.93;;;6.35;;
20036;SDS011;10179;42.640;23.312;2023-08-20T02:29:01;9.90;;;5.90;;
20036;SDS011;10179;42.640;23.312;2023-08-20T02:31:27;9.48;;;6.30;;
20036;SDS011;10179;42.640;23.312;2023-08-20T02:33:53;9.25;;;6.07;;
20036;SDS011;10179;42.640;23.312;2023-08-20T02:36:18;10.05;;;5.80;;
20036;SDS011;10179;42.640;23.312;2023-08-20T02:38:44;8.82;;;6.03;;
20036;SDS011;10179;42.640;23.312;2023-08-20T02:41:10;8.13;;;6.18;;
20036;SDS011;10179;42.640;23.312;2023-08-20T02:43:37;10.55;;;5.75;;
20036;SDS011;10179;42.640;23.312;2023-08-20T02:46:02;9.23;;;5.78;;
20036;SDS011;10179;42.640;23.312;2023-08-20T02:48:28;12.18;;;6.22;;
20036;SDS011;10179;42.640;23.312;2023-08-20T02:50:54;7.82;;;6.40;;
20036;SDS011;10179;42.640;23.312;2023-08-20T02:53:19;9.93;;;5.30;;
20036;SDS011;10179;42.640;23.312;2023-08-20T02:55:45;11.18;;;6.28;;
20036;SDS011;10179;42.640;23.312;2023-08-20T02:58:11;9.05;;;5.93;;
20036;SDS011;10179;42.640;23.312;2023-08-20T03:00:37;8.23;;;6.10;;
20036;SDS011;10179;42.640;23.312;2023-08-20T03:03:03;9.85;;;6.00;;
20036;SDS011;10179;42.640;23.312;2023-08-20T03:05:34;9.68;;;5.80;;
20036;SDS011;10179;42.640;23.312;2023-08-20T03:07:59;17.02;;;12.35;;
20036;SDS011;10179;42.640;23.312;2023-08-20T03:10:26;9.93;;;7.43;;
20036;SDS011;10179;42.640;23.312;2023-08-20T03:12:52;8.95;;;6.35;;
20036;SDS011;10179;42.640;23.312;2023-08-20T03:15:18;10.18;;;6.07;;
20036;SDS011;10179;42.640;23.312;2023-08-20T03:17:43;7.60;;;6.13;;
20036;SDS011;10179;42.640;23.312;2023-08-20T03:20:09;7.90;;;5.43;;
20036;SDS011;10179;42.640;23.312;2023-08-20T03:22:35;11.15;;;6.00;;
20036;SDS011;10179;42.640;23.312;2023-08-20T03:25:01;9.48;;;5.97;;
20036;SDS011;10179;42.640;23.312;2023-08-20T03:27:27;8.15;;;6.18;;
20036;SDS011;10179;42.640;23.312;2023-08-20T03:29:52;10.00;;;5.53;;
20036;SDS011;10179;42.640;23.312;2023-08-20T03:32:18;9.30;;;6.20;;
20036;SDS011;10179;42.640;23.312;2023-08-20T03:34:43;7.00;;;5.88;;
20036;SDS011;10179;42.640;23.312;2023-08-20T03:37:09;8.10;;;6.10;;
20036;SDS011;10179;42.640;23.312;2023-08-20T03:39:34;11.95;;;6.75;;
20036;SDS011;10179;42.640;23.312;2023-08-20T03:41:59;10.13;;;6.38;;
20036;SDS011;10179;42.640;23.312;2023-08-20T03:44:25;9.68;;;5.70;;
20036;SDS011;10179;42.640;23.312;2023-08-20T03:46:51;8.70;;;5.55;;
20036;SDS011;10179;42.640;23.312;2023-08-20T03:49:16;9.48;;;6.15;;
20036;SDS011;10179;42.640;23.312;2023-08-20T03:51:41;8.13;;;6.10;;
20036;SDS011;10179;42.640;23.312;2023-08-20T03:54:07;13.77;;;8.48;;
20036;SDS011;10179;42.640;23.312;2023-08-20T03:56:33;18.40;;;8.45;;
20036;SDS011;10179;42.640;23.312;2023-08-20T03:58:59;11.63;;;6.03;;
20036;SDS011;10179;42.640;23.312;2023-08-20T04:01:24;14.32;;;8.82;;
20036;SDS011;10179;42.640;23.312;2023-08-20T04:03:49;8.77;;;6.07;;
20036;SDS011;10179;42.640;23.312;2023-08-20T04:06:15;13.25;;;7.22;;
20036;SDS011;10179;42.640;23.312;2023-08-20T04:08:40;12.95;;;6.35;;
20036;SDS011;10179;42.640;23.312;2023-08-20T04:11:06;10.95;;;7.25;;
20036;SDS011;10179;42.640;23.312;2023-08-20T04:13:32;11.00;;;6.07;;
20036;SDS011;10179;42.640;23.312;2023-08-20T04:15:57;15.60;;;6.45;;
20036;SDS011;10179;42.640;23.312;2023-08-20T04:18:23;8.60;;;6.30;;
20036;SDS011;10179;42.640;23.312;2023-08-20T04:20:51;14.70;;;5.90;;
20036;SDS011;10179;42.640;23.312;2023-08-20T04:23:18;15.30;;;6.82;;
20036;SDS011;10179;42.640;23.312;2023-08-20T04:25:44;12.60;;;6.10;;
20036;SDS011;10179;42.640;23.312;2023-08-20T04:28:10;10.60;;;5.90;;
20036;SDS011;10179;42.640;23.312;2023-08-20T04:30:36;17.98;;;6.25;;
20036;SDS011;10179;42.640;23.312;2023-08-20T04:33:02;14.25;;;6.38;;
20036;SDS011;10179;42.640;23.312;2023-08-20T04:35:27;9.60;;;6.25;;
20036;SDS011;10179;42.640;23.312;2023-08-20T04:37:53;11.27;;;6.38;;
20036;SDS011;10179;42.640;23.312;2023-08-20T04:40:18;8.25;;;6.05;;
20036;SDS011;10179;42.640;23.312;2023-08-20T04:42:44;7.43;;;5.65;;
20036;SDS011;10179;42.640;23.312;2023-08-20T04:45:09;8.73;;;6.20;;
20036;SDS011;10179;42.640;23.312;2023-08-20T04:47:35;8.80;;;6.57;;
20036;SDS011;10179;42.640;23.312;2023-08-20T04:50:01;12.77;;;6.97;;
20036;SDS011;10179;42.640;23.312;2023-08-20T04:52:27;14.18;;;7.10;;
20036;SDS011;10179;42.640;23.312;2023-08-20T04:54:52;9.45;;;6.03;;
20036;SDS011;10179;42.640;23.312;2023-08-20T04:57:18;11.55;;;7.70;;
20036;SDS011;10179;42.640;23.312;2023-08-20T04:59:43;15.32;;;7.43;;
20036;SDS011;10179;42.640;23.312;2023-08-20T05:02:10;8.23;;;5.80;;
20036;SDS011;10179;42.640;23.312;2023-08-20T05:04:37;9.40;;;6.65;;
20036;SDS011;10179;42.640;23.312;2023-08-20T05:07:03;18.52;;;6.75;;
20036;SDS011;10179;42.640;23.312;2023-08-20T05:09:29;17.63;;;7.25;;
20036;SDS011;10179;42.640;23.312;2023-08-20T05:11:55;11.07;;;6.30;;
20036;SDS011;10179;42.640;23.312;2023-08-20T05:14:20;10.68;;;6.78;;
20036;SDS011;10179;42.640;23.312;2023-08-20T05:16:46;16.60;;;6.47;;
20036;SDS011;10179;42.640;23.312;2023-08-20T05:19:11;10.18;;;6.95;;
20036;SDS011;10179;42.640;23.312;2023-08-20T05:21:36;12.25;;;7.10;;
20036;SDS011;10179;42.640;23.312;2023-08-20T05:24:02;14.35;;;7.38;;
20036;SDS011;10179;42.640;23.312;2023-08-20T05:26:28;12.25;;;7.05;;
20036;SDS011;10179;42.640;23.312;2023-08-20T05:28:53;12.70;;;6.97;;
20036;SDS011;10179;42.640;23.312;2023-08-20T05:31:19;10.73;;;6.80;;
20036;SDS011;10179;42.640;23.312;2023-08-20T05:33:44;10.20;;;6.18;;
20036;SDS011;10179;42.640;23.312;2023-08-20T05:36:09;9.10;;;6.85;;
20036;SDS011;10179;42.640;23.312;2023-08-20T05:38:35;13.18;;;6.85;;
20036;SDS011;10179;42.640;23.312;2023-08-20T05:41:00;10.60;;;7.53;;
20036;SDS011;10179;42.640;23.312;2023-08-20T05:43:25;9.23;;;6.95;;
20036;SDS011;10179;42.640;23.312;2023-08-20T05:45:51;11.75;;;6.18;;
20036;SDS011;10179;42.640;23.312;2023-08-20T05:48:16;9.93;;;6.07;;
20036;SDS011;10179;42.640;23.312;2023-08-20T05:50:42;9.10;;;6.05;;
20036;SDS011;10179;42.640;23.312;2023-08-20T05:53:07;15.90;;;6.63;;
20036;SDS011;10179;42.640;23.312;2023-08-20T05:55:32;11.52;;;6.35;;
20036;SDS011;10179;42.640;23.312;2023-08-20T05:57:58;15.90;;;5.85;;
20036;SDS011;10179;42.640;23.312;2023-08-20T06:00:23;8.70;;;6.03;;
20036;SDS011;10179;42.640;23.312;2023-08-20T06:02:48;7.35;;;5.55;;
20036;SDS011;10179;42.640;23.312;2023-08-20T06:05:14;9.20;;;5.65;;
20036;SDS011;10179;42.640;23.312;2023-08-20T06:07:39;7.43;;;5.80;;
20036;SDS011;10179;42.640;23.312;2023-08-20T06:10:06;9.50;;;5.90;;
20036;SDS011;10179;42.640;23.312;2023-08-20T06:12:32;8.65;;;5.43;;
20036;SDS011;10179;42.640;23.312;2023-08-20T06:14:57;11.57;;;5.55;;
20036;SDS011;10179;42.640;23.312;2023-08-20T06:17:23;9.45;;;5.82;;
20036;SDS011;10179;42.640;23.312;2023-08-20T06:19:48;9.60;;;5.38;;
20036;SDS011;10179;42.640;23.312;2023-08-20T06:22:14;11.15;;;5.63;;
20036;SDS011;10179;42.640;23.312;2023-08-20T06:24:39;7.05;;;4.50;;
20036;SDS011;10179;42.640;23.312;2023-08-20T06:27:05;11.80;;;5.05;;
20036;SDS011;10179;42.640;23.312;2023-08-20T06:29:30;10.60;;;4.80;;
20036;SDS011;10179;42.640;23.312;2023-08-20T06:31:56;8.68;;;4.22;;
20036;SDS011;10179;42.640;23.312;2023-08-20T06:34:21;9.98;;;4.45;;
20036;SDS011;10179;42.640;23.312;2023-08-20T06:36:47;9.75;;;4.00;;
20036;SDS011;10179;42.640;23.312;2023-08-20T06:39:13;7.88;;;4.30;;
20036;SDS011;10179;42.640;23.312;2023-08-20T06:41:40;5.88;;;3.58;;
20036;SDS011;10179;42.640;23.312;2023-08-20T06:44:06;5.28;;;4.00;;
20036;SDS011;10179;42.640;23.312;2023-08-20T06:46:31;6.15;;;3.97;;
20036;SDS011;10179;42.640;23.312;2023-08-20T06:48:56;6.70;;;3.88;;
20036;SDS011;10179;42.640;23.312;2023-08-20T06:51:22;4.72;;;3.40;;
20036;SDS011;10179;42.640;23.312;2023-08-20T06:53:48;7.13;;;3.63;;
20036;SDS011;10179;42.640;23.312;2023-08-20T06:56:13;5.65;;;3.50;;
20036;SDS011;10179;42.640;23.312;2023-08-20T06:58:40;9.57;;;3.72;;
20036;SDS011;10179;42.640;23.312;2023-08-20T07:01:06;7.53;;;3.88;;
20036;SDS011;10179;42.640;23.312;2023-08-20T07:03:42;4.22;;;3.40;;
20036;SDS011;10179;42.640;23.312;2023-08-20T07:06:09;4.93;;;3.58;;
20036;SDS011;10179;42.640;23.312;2023-08-20T07:08:35;6.45;;;3.78;;
20036;SDS011;10179;42.640;23.312;2023-08-20T07:11:01;5.97;;;3.35;;
20036;SDS011;10179;42.640;23.312;2023-08-20T07:13:27;8.60;;;3.50;;
20036;SDS011;10179;42.640;23.312;2023-08-20T07:15:53;11.20;;;3.80;;
20036;SDS011;10179;42.640;23.312;2023-08-20T07:18:19;7.07;;;3.78;;
20036;SDS011;10179;42.640;23.312;2023-08-20T07:20:45;6.55;;;3.80;;
20036;SDS011;10179;42.640;23.312;2023-08-20T07:23:11;6.15;;;3.80;;
20036;SDS011;10179;42.640;23.312;2023-08-20T07:25:40;4.68;;;3.85;;
20036;SDS011;10179;42.640;23.312;2023-08-20T07:28:06;4.40;;;3.55;;
20036;SDS011;10179;42.640;23.312;2023-08-20T07:30:33;4.80;;;3.75;;
20036;SDS011;10179;42.640;23.312;2023-08-20T07:32:59;5.32;;;3.30;;
20036;SDS011;10179;42.640;23.312;2023-08-20T07:35:25;5.75;;;3.55;;
20036;SDS011;10179;42.640;23.312;2023-08-20T07:37:50;6.60;;;3.85;;
20036;SDS011;10179;42.640;23.312;2023-08-20T07:40:16;5.55;;;3.97;;
20036;SDS011;10179;42.640;23.312;2023-08-20T07:42:42;6.70;;;4.03;;
20036;SDS011;10179;42.640;23.312;2023-08-20T07:45:07;7.15;;;4.07;;
20036;SDS011;10179;42.640;23.312;2023-08-20T07:47:35;7.95;;;3.85;;
20036;SDS011;10179;42.640;23.312;2023-08-20T07:50:00;5.22;;;3.83;;
20036;SDS011;10179;42.640;23.312;2023-08-20T07:52:26;5.90;;;3.53;;
20036;SDS011;10179;42.640;23.312;2023-08-20T07:54:51;7.93;;;3.88;;
20036;SDS011;10179;42.640;23.312;2023-08-20T07:57:17;3.75;;;3.22;;
20036;SDS011;10179;42.640;23.312;2023-08-20T07:59:42;7.25;;;3.70;;
20036;SDS011;10179;42.640;23.312;2023-08-20T08:02:08;4.60;;;3.35;;
20036;SDS011;10179;42.640;23.312;2023-08-20T08:04:33;5.80;;;3.17;;
20036;SDS011;10179;42.640;23.312;2023-08-20T08:06:59;5.10;;;3.83;;
20036;SDS011;10179;42.640;23.312;2023-08-20T08:09:28;6.30;;;3.50;;
20036;SDS011;10179;42.640;23.312;2023-08-20T08:11:55;6.63;;;3.20;;
20036;SDS011;10179;42.640;23.312;2023-08-20T08:14:20;5.75;;;3.95;;
20036;SDS011;10179;42.640;23.312;2023-08-20T08:16:46;4.53;;;3.22;;
20036;SDS011;10179;42.640;23.312;2023-08-20T08:19:13;3.17;;;2.80;;
20036;SDS011;10179;42.640;23.312;2023-08-20T08:21:38;4.57;;;3.00;;
20036;SDS011;10179;42.640;23.312;2023-08-20T08:24:04;6.40;;;3.50;;
20036;SDS011;10179;42.640;23.312;2023-08-20T08:26:30;4.53;;;3.38;;
20036;SDS011;10179;42.640;23.312;2023-08-20T08:28:56;4.10;;;3.30;;
20036;SDS011;10179;42.640;23.312;2023-08-20T08:31:23;6.05;;;2.90;;
20036;SDS011;10179;42.640;23.312;2023-08-20T08:33:48;3.97;;;3.00;;
20036;SDS011;10179;42.640;23.312;2023-08-20T08:36:14;4.80;;;3.05;;
20036;SDS011;10179;42.640;23.312;2023-08-20T08:38:41;5.20;;;3.00;;
20036;SDS011;10179;42.640;23.312;2023-08-20T08:41:08;5.47;;;3.10;;
20036;SDS011;10179;42.640;23.312;2023-08-20T08:43:40;5.35;;;2.97;;
20036;SDS011;10179;42.640;23.312;2023-08-20T08:46:06;3.55;;;2.85;;
20036;SDS011;10179;42.640;23.312;2023-08-20T08:48:37;3.47;;;2.83;;
20036;SDS011;10179;42.640;23.312;2023-08-20T08:51:04;4.40;;;3.15;;
20036;SDS011;10179;42.640;23.312;2023-08-20T08:53:30;5.00;;;2.90;;
20036;SDS011;10179;42.640;23.312;2023-08-20T08:55:57;4.32;;;2.83;;
20036;SDS011;10179;42.640;23.312;2023-08-20T08:58:22;6.00;;;2.35;;
20036;SDS011;10179;42.640;23.312;2023-08-20T09:00:48;5.18;;;2.85;;
20036;SDS011;10179;42.640;23.312;2023-08-20T09:03:14;4.65;;;2.53;;
20036;SDS011;10179;42.640;23.312;2023-08-20T09:05:49;5.15;;;2.83;;
20036;SDS011;10179;42.640;23.312;2023-08-20T09:08:20;6.28;;;2.60;;
20036;SDS011;10179;42.640;23.312;2023-08-20T09:10:47;4.65;;;2.85;;
20036;SDS011;10179;42.640;23.312;2023-08-20T09:13:15;3.78;;;2.58;;
20036;SDS011;10179;42.640;23.312;2023-08-20T09:15:40;6.55;;;2.72;;
20036;SDS011;10179;42.640;23.312;2023-08-20T09:18:08;3.55;;;2.63;;
20036;SDS011;10179;42.640;23.312;2023-08-20T09:20:37;3.22;;;2.60;;
20036;SDS011;10179;42.640;23.312;2023-08-20T09:23:04;6.00;;;2.70;;
20036;SDS011;10179;42.640;23.312;2023-08-20T09:25:35;3.08;;;2.45;;
20036;SDS011;10179;42.640;23.312;2023-08-20T09:28:02;4.10;;;2.45;;
20036;SDS011;10179;42.640;23.312;2023-08-20T09:30:28;6.90;;;2.83;;
20036;SDS011;10179;42.640;23.312;2023-08-20T09:33:03;7.78;;;2.50;;
20036;SDS011;10179;42.640;23.312;2023-08-20T09:35:35;4.13;;;2.50;;
20036;SDS011;10179;42.640;23.312;2023-08-20T09:38:00;3.97;;;2.25;;
20036;SDS011;10179;42.640;23.312;2023-08-20T09:40:29;3.58;;;2.28;;
20036;SDS011;10179;42.640;23.312;2023-08-20T09:42:54;3.47;;;2.67;;
20036;SDS011;10179;42.640;23.312;2023-08-20T09:45:21;3.22;;;2.00;;
20036;SDS011;10179;42.640;23.312;2023-08-20T09:47:49;3.25;;;2.55;;
20036;SDS011;10179;42.640;23.312;2023-08-20T09:50:19;2.63;;;2.40;;
20036;SDS011;10179;42.640;23.312;2023-08-20T09:52:57;4.18;;;2.50;;
20036;SDS011;10179;42.640;23.312;2023-08-20T09:55:35;3.25;;;2.63;;
20036;SDS011;10179;42.640;23.312;2023-08-20T09:58:03;3.03;;;2.45;;
20036;SDS011;10179;42.640;23.312;2023-08-20T10:00:30;2.75;;;2.22;;
20036;SDS011;10179;42.640;23.312;2023-08-20T10:02:57;4.45;;;2.40;;
20036;SDS011;10179;42.640;23.312;2023-08-20T10:05:23;3.55;;;2.45;;
20036;SDS011;10179;42.640;23.312;2023-08-20T10:07:48;4.45;;;2.30;;
20036;SDS011;10179;42.640;23.312;2023-08-20T10:10:14;5.53;;;2.08;;
20036;SDS011;10179;42.640;23.312;2023-08-20T10:12:42;2.92;;;2.10;;
20036;SDS011;10179;42.640;23.312;2023-08-20T10:15:10;2.53;;;1.85;;
20036;SDS011;10179;42.640;23.312;2023-08-20T10:17:39;2.65;;;2.08;;
20036;SDS011;10179;42.640;23.312;2023-08-20T10:20:06;4.60;;;2.28;;
20036;SDS011;10179;42.640;23.312;2023-08-20T10:22:33;2.25;;;2.05;;
20036;SDS011;10179;42.640;23.312;2023-08-20T10:25:00;3.10;;;1.98;;
20036;SDS011;10179;42.640;23.312;2023-08-20T10:27:31;2.20;;;2.00;;
20036;SDS011;10179;42.640;23.312;2023-08-20T10:29:58;2.20;;;2.00;;
20036;SDS011;10179;42.640;23.312;2023-08-20T10:32:43;3.72;;;2.25;;
20036;SDS011;10179;42.640;23.312;2023-08-20T10:35:09;5.60;;;2.30;;
20036;SDS011;10179;42.640;23.312;2023-08-20T10:37:34;3.63;;;2.35;;
20036;SDS011;10179;42.640;23.312;2023-08-20T10:40:02;4.68;;;2.33;;
20036;SDS011;10179;42.640;23.312;2023-08-20T10:42:29;2.72;;;2.22;;
20036;SDS011;10179;42.640;23.312;2023-08-20T10:47:24;6.95;;;2.40;;
20036;SDS011;10179;42.640;23.312;2023-08-20T10:49:53;2.50;;;2.10;;
20036;SDS011;10179;42.640;23.312;2023-08-20T10:52:22;5.32;;;2.40;;
20036;SDS011;10179;42.640;23.312;2023-08-20T10:54:52;4.00;;;2.40;;
20036;SDS011;10179;42.640;23.312;2023-08-20T10:57:20;3.72;;;2.60;;
20036;SDS011;10179;42.640;23.312;2023-08-20T10:59:47;3.25;;;2.75;;
20036;SDS011;10179;42.640;23.312;2023-08-20T11:02:22;3.50;;;2.65;;
20036;SDS011;10179;42.640;23.312;2023-08-20T11:04:49;4.32;;;3.10;;
20036;SDS011;10179;42.640;23.312;2023-08-20T11:07:17;3.80;;;2.53;;
20036;SDS011;10179;42.640;23.312;2023-08-20T11:09:43;4.13;;;2.35;;
20036;SDS011;10179;42.640;23.312;2023-08-20T11:12:09;4.20;;;2.90;;
20036;SDS011;10179;42.640;23.312;2023-08-20T11:14:35;3.78;;;2.50;;
20036;SDS011;10179;42.640;23.312;2023-08-20T11:17:00;3.20;;;2.55;;
20036;SDS011;10179;42.640;23.312;2023-08-20T11:19:26;2.78;;;2.22;;
20036;SDS011;10179;42.640;23.312;2023-08-20T11:21:53;2.78;;;2.15;;
20036;SDS011;10179;42.640;23.312;2023-08-20T11:24:19;3.33;;;2.58;;
20036;SDS011;10179;42.640;23.312;2023-08-20T11:26:45;3.88;;;2.22;;
20036;SDS011;10179;42.640;23.312;2023-08-20T11:29:14;3.00;;;2.38;;
20036;SDS011;10179;42.640;23.312;2023-08-20T11:31:44;3.50;;;2.35;;
20036;SDS011;10179;42.640;23.312;2023-08-20T11:34:11;3.88;;;2.38;;
20036;SDS011;10179;42.640;23.312;2023-08-20T11:36:37;8.25;;;2.30;;
20036;SDS011;10179;42.640;23.312;2023-08-20T11:39:04;5.70;;;2.53;;
20036;SDS011;10179;42.640;23.312;2023-08-20T11:41:29;5.63;;;2.58;;
20036;SDS011;10179;42.640;23.312;2023-08-20T11:43:55;3.78;;;2.60;;
20036;SDS011;10179;42.640;23.312;2023-08-20T11:46:22;3.22;;;2.47;;
20036;SDS011;10179;42.640;23.312;2023-08-20T11:49:07;4.25;;;2.58;;
20036;SDS011;10179;42.640;23.312;2023-08-20T11:54:05;3.00;;;2.10;;
20036;SDS011;10179;42.640;23.312;2023-08-20T11:56:33;3.42;;;2.58;;
20036;SDS011;10179;42.640;23.312;2023-08-20T11:58:59;3.50;;;2.75;;
20036;SDS011;10179;42.640;23.312;2023-08-20T12:01:26;3.47;;;2.45;;
20036;SDS011;10179;42.640;23.312;2023-08-20T12:03:59;4.78;;;2.55;;
20036;SDS011;10179;42.640;23.312;2023-08-20T12:06:26;4.05;;;2.45;;
20036;SDS011;10179;42.640;23.312;2023-08-20T12:08:55;5.72;;;2.95;;
20036;SDS011;10179;42.640;23.312;2023-08-20T12:11:23;5.22;;;2.55;;
20036;SDS011;10179;42.640;23.312;2023-08-20T12:13:52;4.03;;;2.72;;
20036;SDS011;10179;42.640;23.312;2023-08-20T12:16:18;5.30;;;2.90;;
20036;SDS011;10179;42.640;23.312;2023-08-20T12:18:45;3.50;;;2.88;;
20036;SDS011;10179;42.640;23.312;2023-08-20T12:21:11;4.38;;;2.72;;
20036;SDS011;10179;42.640;23.312;2023-08-20T12:23:36;3.97;;;2.97;;
20036;SDS011;10179;42.640;23.312;2023-08-20T12:26:02;2.83;;;2.50;;
20036;SDS011;10179;42.640;23.312;2023-08-20T12:28:27;4.88;;;3.08;;
20036;SDS011;10179;42.640;23.312;2023-08-20T12:30:53;5.65;;;2.80;;
20036;SDS011;10179;42.640;23.312;2023-08-20T12:33:18;4.65;;;2.97;;
20036;SDS011;10179;42.640;23.312;2023-08-20T12:35:45;3.42;;;2.80;;
20036;SDS011;10179;42.640;23.312;2023-08-20T12:38:11;3.72;;;2.70;;
20036;SDS011;10179;42.640;23.312;2023-08-20T12:40:36;4.25;;;2.80;;
20036;SDS011;10179;42.640;23.312;2023-08-20T12:43:02;4.40;;;2.70;;
20036;SDS011;10179;42.640;23.312;2023-08-20T12:45:28;3.72;;;2.65;;
20036;SDS011;10179;42.640;23.312;2023-08-20T12:47:53;3.10;;;2.70;;
20036;SDS011;10179;42.640;23.312;2023-08-20T12:50:19;5.95;;;3.20;;
20036;SDS011;10179;42.640;23.312;2023-08-20T12:52:44;4.57;;;2.97;;
20036;SDS011;10179;42.640;23.312;2023-08-20T12:55:09;5.10;;;2.55;;
20036;SDS011;10179;42.640;23.312;2023-08-20T12:57:35;3.30;;;2.83;;
20036;SDS011;10179;42.640;23.312;2023-08-20T13:00:02;4.28;;;2.53;;
20036;SDS011;10179;42.640;23.312;2023-08-20T13:02:32;6.18;;;2.58;;
20036;SDS011;10179;42.640;23.312;2023-08-20T13:04:58;3.85;;;2.70;;
20036;SDS011;10179;42.640;23.312;2023-08-20T13:07:23;5.57;;;2.55;;
20036;SDS011;10179;42.640;23.312;2023-08-20T13:09:49;5.18;;;2.78;;
20036;SDS011;10179;42.640;23.312;2023-08-20T13:12:15;3.30;;;2.55;;
20036;SDS011;10179;42.640;23.312;2023-08-20T13:14:43;7.85;;;3.03;;
20036;SDS011;10179;42.640;23.312;2023-08-20T13:17:09;6.55;;;2.90;;
20036;SDS011;10179;42.640;23.312;2023-08-20T13:19:35;3.42;;;2.80;;
20036;SDS011;10179;42.640;23.312;2023-08-20T13:22:00;5.78;;;2.97;;
20036;SDS011;10179;42.640;23.312;2023-08-20T13:24:26;6.70;;;2.58;;
20036;SDS011;10179;42.640;23.312;2023-08-20T13:26:51;4.45;;;2.85;;
20036;SDS011;10179;42.640;23.312;2023-08-20T13:29:17;5.43;;;3.30;;
20036;SDS011;10179;42.640;23.312;2023-08-20T13:31:43;5.35;;;2.90;;
20036;SDS011;10179;42.640;23.312;2023-08-20T13:34:08;3.75;;;2.88;;
20036;SDS011;10179;42.640;23.312;2023-08-20T13:36:34;4.05;;;2.50;;
20036;SDS011;10179;42.640;23.312;2023-08-20T13:38:59;5.07;;;3.08;;
20036;SDS011;10179;42.640;23.312;2023-08-20T13:41:24;8.23;;;2.78;;
20036;SDS011;10179;42.640;23.312;2023-08-20T13:43:50;4.05;;;2.88;;
20036;SDS011;10179;42.640;23.312;2023-08-20T13:46:15;5.10;;;2.83;;
20036;SDS011;10179;42.640;23.312;2023-08-20T13:48:41;4.68;;;2.70;;
20036;SDS011;10179;42.640;23.312;2023-08-20T13:51:06;3.72;;;2.80;;
20036;SDS011;10179;42.640;23.312;2023-08-20T13:53:31;3.58;;;2.95;;
20036;SDS011;10179;42.640;23.312;2023-08-20T13:55:57;5.57;;;2.20;;
20036;SDS011;10179;42.640;23.312;2023-08-20T13:58:22;9.18;;;3.65;;
20036;SDS011;10179;42.640;23.312;2023-08-20T14:00:48;3.30;;;2.70;;
20036;SDS011;10179;42.640;23.312;2023-08-20T14:03:13;3.58;;;2.65;;
20036;SDS011;10179;42.640;23.312;2023-08-20T14:05:39;7.32;;;2.80;;
20036;SDS011;10179;42.640;23.312;2023-08-20T14:08:04;5.80;;;2.70;;
20036;SDS011;10179;42.640;23.312;2023-08-20T14:10:30;3.90;;;2.72;;
20036;SDS011;10179;42.640;23.312;2023-08-20T14:12:55;5.70;;;2.50;;
20036;SDS011;10179;42.640;23.312;2023-08-20T14:15:21;2.95;;;2.25;;
20036;SDS011;10179;42.640;23.312;2023-08-20T14:17:46;7.15;;;2.97;;
20036;SDS011;10179;42.640;23.312;2023-08-20T14:20:12;3.80;;;2.33;;
20036;SDS011;10179;42.640;23.312;2023-08-20T14:22:38;4.18;;;2.63;;
20036;SDS011;10179;42.640;23.312;2023-08-20T14:25:04;4.10;;;2.47;;
20036;SDS011;10179;42.640;23.312;2023-08-20T14:27:29;4.72;;;2.70;;
20036;SDS011;10179;42.640;23.312;2023-08-20T14:29:55;4.20;;;2.40;;
20036;SDS011;10179;42.640;23.312;2023-08-20T14:32:20;5.85;;;2.50;;
20036;SDS011;10179;42.640;23.312;2023-08-20T14:34:46;6.20;;;2.88;;
20036;SDS011;10179;42.640;23.312;2023-08-20T14:37:11;3.58;;;2.95;;
20036;SDS011;10179;42.640;23.312;2023-08-20T14:39:38;3.83;;;2.78;;
20036;SDS011;10179;42.640;23.312;2023-08-20T14:42:04;6.32;;;2.28;;
20036;SDS011;10179;42.640;23.312;2023-08-20T14:44:29;7.07;;;2.17;;